This is the latest recevied weather packets stored in our database for station/object KR4CWL-13. If no packets are shown the sender has not sent any weather packets the latest 1 day(s).
| Time | Temp. | Humidity | Pressure | Rain* | Wind** | Luminosity | Snow |
|---|---|---|---|---|---|---|---|
| 1778004852 | 27.22° C | 41% | 1008.8 hPa | 0 mm | 1.79 m/s, 135° | - | - |
| 1778004251 | 26.67° C | 41% | 1008.8 hPa | 0 mm | 2.24 m/s, 45° | - | - |
| 1778003651 | 27.22° C | 42% | 1009.1 hPa | 0 mm | 1.79 m/s, 203° | - | - |
| 1778003051 | 26.11° C | 43% | 1009.1 hPa | 0 mm | 0 m/s | - | - |
| 1778002451 | 25.56° C | 45% | 1009.1 hPa | 0 mm | 0.89 m/s, 135° | - | - |
| 1778001851 | 26.11° C | 44% | 1009.1 hPa | 0 mm | 0.89 m/s, 225° | - | - |
| 1778001251 | 26.11° C | 45% | 1009.1 hPa | 0 mm | 2.24 m/s, 158° | - | - |
| 1778000651 | 26.67° C | 43% | 1009.5 hPa | 0 mm | 2.68 m/s, 203° | - | - |
| 1778000051 | 26.67° C | 44% | 1009.5 hPa | 0 mm | 1.79 m/s, 23° | - | - |
| 1777999451 | 27.22° C | 42% | 1009.8 hPa | 0 mm | 1.79 m/s, 113° | - | - |
| 1777998851 | 27.22° C | 43% | 1009.8 hPa | 0 mm | 0.89 m/s, 315° | - | - |
| 1777998251 | 27.22° C | 44% | 1009.8 hPa | 0 mm | 3.13 m/s, 203° | - | - |
| 1777997651 | 27.22° C | 43% | 1009.8 hPa | 0 mm | 1.34 m/s, 113° | - | - |
| 1777997051 | 26.67° C | 45% | 1010.2 hPa | 0 mm | 1.34 m/s, 135° | - | - |
| 1777996451 | 26.11° C | 47% | 1010.2 hPa | 0 mm | 0.89 m/s, 270° | - | - |
| 1777995851 | 26.67° C | 46% | 1010.2 hPa | 0 mm | 0.89 m/s, 225° | - | - |
| 1777995251 | 26.67° C | 45% | 1010.2 hPa | 0 mm | 0.89 m/s, 315° | - | - |
| 1777994651 | 26.11° C | 47% | 1010.2 hPa | 0 mm | 0.89 m/s, 135° | - | - |
| 1777994051 | 27.22° C | 47% | 1010.2 hPa | 0 mm | 0 m/s | - | - |
| 1777993451 | 26.11° C | 48% | 1010.2 hPa | 0 mm | 0.45 m/s, 315° | - | - |
| 1777992851 | 25.56° C | 51% | 1010.2 hPa | 0 mm | 0.89 m/s, 203° | - | - |
| 1777992251 | 25° C | 53% | 1010.2 hPa | 0 mm | 0.45 m/s, 270° | - | - |
| 1777991651 | 25.56° C | 52% | 1010.2 hPa | 0 mm | 0 m/s | - | - |
| 1777991051 | 24.44° C | 54% | 1010.2 hPa | 0 mm | 0.89 m/s, 293° | - | - |
| 1777990451 | 24.44° C | 55% | 1010.2 hPa | 0 mm | 0.45 m/s, 248° | - | - |
* Rain since midnight (hover to see other rain measurements)
** Current wind speed in m/s (hover to see current wind gust speed)